Time;durP1;ratioP1;P1;durP2;ratioP2;P2;SDS_P1;SDS_P2;PMS_P1;PMS_P2;Temp;Humidity;BMP_temperature;BMP_pressure;BME280_temperature;BME280_humidity;BME280_pressure;Samples;Min_cycle;Max_cycle;Signal;HPM_P1;HPM_P2
2024/01/24 00:00:53;;;;;;;10.55;2.17;;;8.40;99.90;;;;;;5042784;28;20279;-60
2024/01/24 00:03:21;;;;;;;15.13;3.25;;;8.40;99.90;;;;;;5033817;28;20309;-60
2024/01/24 00:05:50;;;;;;;10.43;2.22;;;8.40;99.90;;;;;;5012299;28;20213;-60
2024/01/24 00:08:18;;;;;;;7.68;2.13;;;8.40;99.90;;;;;;5029105;28;20210;-60
2024/01/24 00:10:46;;;;;;;12.18;2.65;;;8.50;99.90;;;;;;5032290;28;20637;-60
2024/01/24 00:13:14;;;;;;;11.27;1.77;;;8.50;99.90;;;;;;5032101;28;20253;-60
2024/01/24 00:15:43;;;;;;;11.45;1.73;;;8.60;99.90;;;;;;5031914;28;20273;-60
2024/01/24 00:18:11;;;;;;;12.27;2.08;;;8.60;99.90;;;;;;5031877;28;20309;-60
2024/01/24 00:20:39;;;;;;;9.63;2.03;;;8.60;99.90;;;;;;5051800;28;20265;-60
2024/01/24 00:23:07;;;;;;;4.88;1.75;;;8.60;99.90;;;;;;5021268;28;20270;-60
2024/01/24 00:25:35;;;;;;;9.02;2.15;;;8.60;99.90;;;;;;5012494;28;20294;-60
2024/01/24 00:28:03;;;;;;;5.88;1.65;;;8.70;99.90;;;;;;5021934;28;20676;-60
2024/01/24 00:30:31;;;;;;;16.63;2.08;;;8.70;99.90;;;;;;5031798;28;20285;-60
2024/01/24 00:33:00;;;;;;;12.82;1.45;;;8.80;99.90;;;;;;5032242;28;20210;-60
2024/01/24 00:35:28;;;;;;;9.73;1.73;;;8.80;99.90;;;;;;5029129;28;20242;-60
2024/01/24 00:37:56;;;;;;;9.52;1.67;;;8.80;99.90;;;;;;5031021;28;20750;-59
2024/01/24 00:40:24;;;;;;;7.93;1.55;;;8.90;99.90;;;;;;5031247;28;20292;-60
2024/01/24 00:42:52;;;;;;;5.38;1.00;;;8.90;99.90;;;;;;5031630;28;20256;-60
2024/01/24 00:45:20;;;;;;;10.77;1.23;;;9.00;99.90;;;;;;5031813;28;20226;-60
2024/01/24 00:47:49;;;;;;;5.32;1.08;;;9.10;99.90;;;;;;5031991;28;20199;-60
2024/01/24 00:50:18;;;;;;;6.82;1.40;;;9.10;99.90;;;;;;5031583;28;20668;-60
2024/01/24 00:52:51;;;;;;;5.03;0.90;;;9.10;99.90;;;;;;5023994;28;20245;-60
2024/01/24 00:55:19;;;;;;;4.03;1.10;;;9.10;99.90;;;;;;5031271;28;20222;-61
2024/01/24 00:57:47;;;;;;;8.00;1.05;;;9.10;99.90;;;;;;5033850;28;20285;-61
2024/01/24 01:00:16;;;;;;;2.95;1.20;;;9.10;99.90;;;;;;5051423;28;20265;-58
2024/01/24 01:02:44;;;;;;;4.95;1.13;;;9.10;99.90;;;;;;5039406;28;20463;-60
2024/01/24 01:05:11;;;;;;;6.43;1.15;;;9.10;99.90;;;;;;5020359;28;20266;-60
2024/01/24 01:07:41;;;;;;;3.40;0.93;;;9.10;99.90;;;;;;5018200;28;20206;-60
2024/01/24 01:10:09;;;;;;;4.43;0.80;;;9.20;99.90;;;;;;5022869;28;20838;-60
2024/01/24 01:12:37;;;;;;;7.07;1.30;;;9.20;99.90;;;;;;5044464;28;20259;-59
2024/01/24 01:15:06;;;;;;;2.85;0.85;;;9.20;99.90;;;;;;5050265;28;20222;-60
2024/01/24 01:17:34;;;;;;;3.78;1.02;;;9.20;99.90;;;;;;5037371;28;20248;-60
2024/01/24 01:20:03;;;;;;;5.22;0.93;;;9.30;99.90;;;;;;5042471;28;20220;-60
2024/01/24 01:22:31;;;;;;;5.65;0.98;;;9.30;99.90;;;;;;5034113;28;20253;-60
2024/01/24 01:25:00;;;;;;;3.50;1.00;;;9.30;99.90;;;;;;5030983;28;20700;-61
2024/01/24 01:27:28;;;;;;;1.88;0.90;;;9.30;99.90;;;;;;5031308;28;20217;-60
2024/01/24 01:29:56;;;;;;;2.25;0.60;;;9.40;99.90;;;;;;5031182;28;20206;-60
2024/01/24 01:32:24;;;;;;;3.75;0.80;;;9.40;99.90;;;;;;5031214;28;20293;-60
2024/01/24 01:34:54;;;;;;;4.20;1.05;;;9.50;99.90;;;;;;5030979;28;20243;-59
2024/01/24 01:37:23;;;;;;;3.58;1.00;;;9.50;99.90;;;;;;5031106;28;20248;-60
2024/01/24 01:39:51;;;;;;;1.77;0.70;;;9.50;99.90;;;;;;5031144;28;20210;-61
2024/01/24 01:42:20;;;;;;;2.88;0.70;;;9.60;99.90;;;;;;5031263;28;20210;-60
2024/01/24 01:44:48;;;;;;;4.88;0.65;;;9.60;99.90;;;;;;5031103;28;20229;-60
2024/01/24 01:47:16;;;;;;;4.88;1.10;;;9.70;99.90;;;;;;5027449;28;20233;-60
2024/01/24 01:49:44;;;;;;;3.38;0.90;;;9.70;99.90;;;;;;5030694;28;20211;-60
2024/01/24 01:52:12;;;;;;;1.65;0.80;;;9.70;99.90;;;;;;5031257;28;20211;-59
2024/01/24 01:54:40;;;;;;;1.30;0.95;;;9.70;99.90;;;;;;5030926;28;20647;-60
2024/01/24 01:57:11;;;;;;;2.10;0.60;;;9.70;99.90;;;;;;5030854;28;20237;-59
2024/01/24 01:59:40;;;;;;;2.15;0.55;;;9.70;99.90;;;;;;5030532;28;20211;-60
2024/01/24 02:02:10;;;;;;;1.67;0.95;;;9.80;99.90;;;;;;5030661;28;20211;-60
2024/01/24 02:04:37;;;;;;;2.78;0.80;;;9.80;99.90;;;;;;5031096;28;20680;-60
2024/01/24 02:07:05;;;;;;;3.95;0.80;;;9.90;99.90;;;;;;5030808;28;20221;-61
2024/01/24 02:09:34;;;;;;;3.75;1.02;;;9.90;99.90;;;;;;5026860;28;20211;-60
2024/01/24 02:12:02;;;;;;;1.85;0.70;;;9.90;99.90;;;;;;5026700;28;20211;-60
2024/01/24 02:14:30;;;;;;;1.50;0.88;;;9.90;99.90;;;;;;5030797;28;20775;-60
2024/01/24 02:16:59;;;;;;;2.83;0.70;;;10.00;99.90;;;;;;5038226;28;20616;-60
2024/01/24 02:19:27;;;;;;;2.17;1.10;;;10.00;99.90;;;;;;5052919;28;20348;-60
2024/01/24 02:21:55;;;;;;;2.83;1.02;;;10.00;99.90;;;;;;5030704;28;20653;-60
2024/01/24 02:24:24;;;;;;;2.92;1.10;;;10.00;99.90;;;;;;5046746;28;20845;-60
2024/01/24 02:26:52;;;;;;;2.80;0.73;;;10.00;99.90;;;;;;5035940;28;20213;-61
2024/01/24 02:29:20;;;;;;;2.70;0.70;;;10.00;99.90;;;;;;5022082;28;20215;-60
2024/01/24 02:31:47;;;;;;;3.78;0.88;;;10.10;99.90;;;;;;5017324;28;20302;-60
2024/01/24 02:34:15;;;;;;;3.33;0.75;;;10.10;99.90;;;;;;5030034;28;20783;-59
2024/01/24 02:36:43;;;;;;;0.60;0.60;;;10.10;99.90;;;;;;5044459;28;20221;-59
2024/01/24 02:39:11;;;;;;;3.17;0.73;;;10.20;99.90;;;;;;5053984;28;20208;-59
2024/01/24 02:41:40;;;;;;;1.35;0.85;;;10.20;99.90;;;;;;5044066;28;20210;-60
2024/01/24 02:44:09;;;;;;;1.65;0.65;;;10.20;99.90;;;;;;5041730;28;20257;-61
2024/01/24 02:46:37;;;;;;;1.58;0.70;;;10.20;99.90;;;;;;5018526;28;20206;-60
2024/01/24 02:49:05;;;;;;;3.13;0.77;;;10.20;99.90;;;;;;5047749;28;20264;-60
2024/01/24 02:51:33;;;;;;;0.70;0.70;;;10.20;99.90;;;;;;5034876;28;20215;-63
2024/01/24 02:54:01;;;;;;;1.52;0.65;;;10.20;99.90;;;;;;5014524;28;20263;-61
2024/01/24 02:56:29;;;;;;;3.47;0.80;;;10.20;99.90;;;;;;5041500;28;20300;-60
2024/01/24 02:58:58;;;;;;;1.25;0.50;;;10.20;99.90;;;;;;5026374;28;20210;-61
2024/01/24 03:01:26;;;;;;;2.15;0.60;;;10.20;99.90;;;;;;5026903;28;20311;-60
2024/01/24 03:03:54;;;;;;;4.13;0.65;;;10.20;99.90;;;;;;5033372;28;20227;-59
2024/01/24 03:06:22;;;;;;;1.45;0.70;;;10.30;99.90;;;;;;5033358;28;20728;-59
2024/01/24 03:08:51;;;;;;;1.08;0.40;;;10.30;99.90;;;;;;5032867;28;20643;-61
2024/01/24 03:11:19;;;;;;;0.43;0.32;;;10.30;99.90;;;;;;5027557;28;20210;-60
2024/01/24 03:13:48;;;;;;;1.75;0.40;;;10.30;99.90;;;;;;5031729;28;20610;-61
2024/01/24 03:16:17;;;;;;;3.00;0.60;;;10.30;99.90;;;;;;5025793;28;20302;-61
2024/01/24 03:18:45;;;;;;;0.80;0.40;;;10.30;99.90;;;;;;5031712;28;20634;-60
2024/01/24 03:21:15;;;;;;;2.67;0.60;;;10.30;99.90;;;;;;5032892;28;20238;-60
2024/01/24 03:23:43;;;;;;;1.85;0.43;;;10.30;99.90;;;;;;5033129;28;20230;-60
2024/01/24 03:26:13;;;;;;;0.82;0.40;;;10.30;99.90;;;;;;5032705;28;20310;-60
2024/01/24 03:28:41;;;;;;;0.73;0.30;;;10.30;99.90;;;;;;5033189;28;20232;-60
2024/01/24 03:31:09;;;;;;;1.63;0.55;;;10.40;99.90;;;;;;5032016;28;20330;-60
2024/01/24 03:33:38;;;;;;;2.60;0.60;;;10.40;99.90;;;;;;5032829;28;20257;-60
2024/01/24 03:36:06;;;;;;;0.90;0.32;;;10.40;99.90;;;;;;5032816;28;20210;-60
2024/01/24 03:38:35;;;;;;;0.75;0.40;;;10.40;99.90;;;;;;5033011;28;20296;-61
2024/01/24 03:41:02;;;;;;;0.75;0.30;;;10.40;99.90;;;;;;5032233;28;20234;-59
2024/01/24 03:43:30;;;;;;;1.20;0.47;;;10.40;99.90;;;;;;5032233;28;20261;-60
2024/01/24 03:45:59;;;;;;;0.30;0.30;;;10.50;99.90;;;;;;5032337;28;20241;-60
2024/01/24 03:48:27;;;;;;;1.90;0.50;;;10.40;99.90;;;;;;5032815;28;20206;-60
2024/01/24 03:50:57;;;;;;;0.30;0.30;;;10.40;99.90;;;;;;5024314;28;20221;-60
2024/01/24 03:53:25;;;;;;;3.97;0.47;;;10.40;99.90;;;;;;5032907;28;20337;-60
2024/01/24 03:55:52;;;;;;;1.45;0.45;;;10.40;99.90;;;;;;5032068;28;20226;-60
2024/01/24 03:58:20;;;;;;;1.15;0.20;;;10.40;99.90;;;;;;5032651;28;20238;-61
2024/01/24 04:00:50;;;;;;;0.63;0.32;;;10.40;99.90;;;;;;5026888;28;20215;-61
2024/01/24 04:03:18;;;;;;;1.13;0.32;;;10.40;99.90;;;;;;5032346;28;20297;-60
2024/01/24 04:05:46;;;;;;;0.43;0.30;;;10.50;99.90;;;;;;5039948;28;20226;-61
2024/01/24 04:08:15;;;;;;;1.08;0.30;;;10.50;99.90;;;;;;5028399;28;20234;-61
2024/01/24 04:10:43;;;;;;;0.65;0.30;;;10.50;99.90;;;;;;5031862;28;20272;-60
2024/01/24 04:13:11;;;;;;;1.30;0.35;;;10.50;99.90;;;;;;5031878;28;20610;-59
2024/01/24 04:15:39;;;;;;;1.17;0.20;;;10.60;99.90;;;;;;5032007;28;20210;-60
2024/01/24 04:18:11;;;;;;;0.20;0.20;;;10.50;99.90;;;;;;5031746;28;20207;-60
2024/01/24 04:20:40;;;;;;;0.63;0.20;;;10.60;99.90;;;;;;5030299;28;20716;-59
2024/01/24 04:23:07;;;;;;;0.52;0.30;;;10.60;99.90;;;;;;5031357;28;20246;-60
2024/01/24 04:25:37;;;;;;;1.30;0.35;;;10.60;99.90;;;;;;5031383;28;20280;-60
2024/01/24 04:28:05;;;;;;;0.40;0.20;;;10.60;99.90;;;;;;5033807;28;20205;-60
2024/01/24 04:30:33;;;;;;;0.77;0.30;;;10.50;99.90;;;;;;5031663;28;20285;-61
2024/01/24 04:33:01;;;;;;;0.90;0.30;;;10.50;99.90;;;;;;5031636;28;20293;-61
2024/01/24 04:35:29;;;;;;;0.70;0.30;;;10.50;99.90;;;;;;5031210;28;20620;-61
2024/01/24 04:37:56;;;;;;;0.70;0.50;;;10.50;99.90;;;;;;5023384;28;20644;-60
2024/01/24 04:40:24;;;;;;;0.20;0.20;;;10.40;99.90;;;;;;5031715;28;20226;-60
2024/01/24 04:42:53;;;;;;;2.13;0.35;;;10.40;99.90;;;;;;5031137;28;20198;-60
2024/01/24 04:45:21;;;;;;;1.23;0.30;;;10.40;99.90;;;;;;5031526;28;20608;-60
2024/01/24 04:47:49;;;;;;;0.85;0.40;;;10.40;99.90;;;;;;5026078;28;20265;-60
2024/01/24 04:50:17;;;;;;;2.10;0.40;;;10.40;99.90;;;;;;5030301;28;20210;-60
2024/01/24 04:52:45;;;;;;;1.05;0.30;;;10.40;99.90;;;;;;5029859;28;20264;-61
2024/01/24 04:55:13;;;;;;;2.50;0.38;;;10.40;99.90;;;;;;5031029;28;20257;-61
2024/01/24 04:57:41;;;;;;;1.13;0.30;;;10.40;99.90;;;;;;5031593;28;20305;-60
2024/01/24 05:00:12;;;;;;;1.98;0.65;;;10.40;99.90;;;;;;5031298;28;20225;-60
2024/01/24 05:02:40;;;;;;;0.30;0.30;;;10.40;99.90;;;;;;5022509;28;20206;-59
2024/01/24 05:05:08;;;;;;;0.75;0.30;;;10.40;99.90;;;;;;5031391;28;20820;-60
2024/01/24 05:07:36;;;;;;;0.90;0.45;;;10.40;99.90;;;;;;5031640;28;20229;-61
2024/01/24 05:10:05;;;;;;;1.02;0.30;;;10.40;99.90;;;;;;5031400;28;20221;-61
2024/01/24 05:12:33;;;;;;;0.82;0.50;;;10.40;99.90;;;;;;5023075;28;20203;-60
2024/01/24 05:15:01;;;;;;;1.13;0.30;;;10.40;99.90;;;;;;5031225;28;20222;-60
2024/01/24 05:17:31;;;;;;;1.15;0.30;;;10.40;99.90;;;;;;5028860;28;20268;-60
2024/01/24 05:19:58;;;;;;;0.85;0.45;;;10.40;99.90;;;;;;5029166;28;20248;-61
2024/01/24 05:22:26;;;;;;;0.35;0.20;;;10.40;99.90;;;;;;5031325;28;20199;-61
2024/01/24 05:24:54;;;;;;;0.90;0.20;;;10.40;99.90;;;;;;5028755;28;20280;-60
2024/01/24 05:27:22;;;;;;;0.28;0.28;;;10.30;99.90;;;;;;5031208;28;20223;-60
2024/01/24 05:29:50;;;;;;;2.22;0.40;;;10.30;99.90;;;;;;5030835;28;20688;-61
2024/01/24 05:32:18;;;;;;;0.30;0.30;;;10.30;99.90;;;;;;5030792;28;20662;-60
2024/01/24 05:34:49;;;;;;;0.98;0.30;;;10.40;99.90;;;;;;5036252;22;20230;-61
2024/01/24 05:37:17;;;;;;;0.30;0.30;;;10.40;99.90;;;;;;5007902;28;20199;-59
2024/01/24 05:39:45;;;;;;;1.45;0.30;;;10.40;99.90;;;;;;5011221;28;20203;-57
2024/01/24 05:42:13;;;;;;;0.43;0.30;;;10.40;99.90;;;;;;5016137;28;20289;-58
2024/01/24 05:44:41;;;;;;;0.85;0.50;;;10.40;99.90;;;;;;5018507;28;20281;-58
2024/01/24 05:47:09;;;;;;;3.85;0.30;;;10.40;99.90;;;;;;5010458;28;20682;-57
2024/01/24 05:49:37;;;;;;;0.20;0.20;;;10.30;99.90;;;;;;5010691;28;20746;-58
2024/01/24 05:52:06;;;;;;;3.00;0.30;;;10.30;99.90;;;;;;5013722;28;20610;-58
2024/01/24 05:54:34;;;;;;;0.43;0.20;;;10.30;99.90;;;;;;5012811;28;20211;-58
2024/01/24 05:57:03;;;;;;;0.22;0.20;;;10.40;99.90;;;;;;5011770;28;20203;-60
2024/01/24 05:59:31;;;;;;;2.63;0.30;;;10.30;99.90;;;;;;5012108;28;20261;-58
2024/01/24 06:01:59;;;;;;;0.20;0.20;;;10.30;99.90;;;;;;5012781;28;20642;-56
2024/01/24 06:04:27;;;;;;;0.30;0.17;;;10.30;99.90;;;;;;5012082;28;20210;-58
2024/01/24 06:07:00;;;;;;;0.63;0.30;;;10.40;99.90;;;;;;5010049;28;21609;-57
2024/01/24 06:09:29;;;;;;;1.27;0.35;;;10.40;99.90;;;;;;5009954;28;20215;-58
2024/01/24 06:11:57;;;;;;;0.20;0.20;;;10.40;99.90;;;;;;5014021;28;20310;-57
2024/01/24 06:14:25;;;;;;;0.50;0.30;;;10.50;99.90;;;;;;5023927;28;20613;-57
2024/01/24 06:16:53;;;;;;;0.38;0.20;;;10.50;99.90;;;;;;5022132;28;20204;-56
2024/01/24 06:19:21;;;;;;;0.85;0.20;;;10.50;99.90;;;;;;5006406;28;20242;-59
2024/01/24 06:21:49;;;;;;;5.13;0.30;;;10.50;99.90;;;;;;5014410;28;20550;-58
2024/01/24 06:24:17;;;;;;;1.42;0.20;;;10.50;99.90;;;;;;5025258;28;20321;-58
2024/01/24 06:26:48;;;;;;;1.38;0.20;;;10.50;99.90;;;;;;5034057;28;20223;-57
2024/01/24 06:29:16;;;;;;;0.95;0.20;;;10.50;99.90;;;;;;5010269;28;20294;-58
2024/01/24 06:32:07;;;;;;;8.30;1.08;;;10.50;99.90;;;;;;5008715;28;20203;-57
2024/01/24 06:34:35;;;;;;;4.07;0.57;;;10.60;99.90;;;;;;5007116;28;20280;-59
2024/01/24 06:37:03;;;;;;;2.13;0.30;;;11.20;99.90;;;;;;5005896;28;20303;-59
2024/01/24 06:39:31;;;;;;;1.17;0.30;;;11.70;99.90;;;;;;5012530;28;20746;-60
2024/01/24 06:42:00;;;;;;;2.92;0.47;;;12.40;99.90;;;;;;5010487;28;20242;-57
2024/01/24 06:44:28;;;;;;;0.10;0.10;;;12.90;99.90;;;;;;5009144;28;20269;-56
2024/01/24 06:46:56;;;;;;;0.10;0.10;;;13.30;99.90;;;;;;5013594;28;20223;-60
2024/01/24 06:49:24;;;;;;;0.98;0.10;;;13.10;99.90;;;;;;5013806;28;20647;-56
2024/01/24 06:51:52;;;;;;;0.10;0.10;;;12.80;99.90;;;;;;5013884;28;20294;-55
2024/01/24 06:54:20;;;;;;;0.10;0.10;;;12.50;99.90;;;;;;5013784;28;20661;-57
2024/01/24 06:56:48;;;;;;;0.05;0.05;;;12.30;99.90;;;;;;5015542;28;20199;-57
2024/01/24 06:59:18;;;;;;;0.10;0.10;;;12.10;99.90;;;;;;5023343;28;20203;-60
2024/01/24 07:01:46;;;;;;;0.00;0.00;;;12.10;99.90;;;;;;5008857;28;20290;-60
2024/01/24 07:04:14;;;;;;;0.90;0.20;;;12.00;99.90;;;;;;5009201;28;20287;-59
2024/01/24 07:06:42;;;;;;;0.35;0.20;;;11.90;99.90;;;;;;5024312;28;20228;-60
2024/01/24 07:09:11;;;;;;;0.20;0.10;;;11.80;99.90;;;;;;5016394;28;20215;-60
2024/01/24 07:11:39;;;;;;;0.10;0.10;;;11.80;99.90;;;;;;5029412;28;20207;-60
2024/01/24 07:14:07;;;;;;;0.10;0.10;;;11.90;99.90;;;;;;5013788;28;20203;-59
2024/01/24 07:16:37;;;;;;;0.10;0.10;;;12.00;99.90;;;;;;5029360;28;20223;-58
2024/01/24 07:19:05;;;;;;;0.32;0.20;;;12.10;99.90;;;;;;5033600;28;20241;-60
2024/01/24 07:21:33;;;;;;;0.00;0.00;;;12.20;99.90;;;;;;5033082;28;20206;-57
2024/01/24 07:24:00;;;;;;;0.32;0.00;;;12.20;99.90;;;;;;5032752;28;20218;-59
2024/01/24 07:26:28;;;;;;;0.13;0.00;;;12.20;99.90;;;;;;5032917;28;20309;-60
2024/01/24 07:28:56;;;;;;;0.70;0.10;;;12.20;99.90;;;;;;5033241;28;20317;-60
2024/01/24 07:31:24;;;;;;;0.22;0.20;;;12.20;99.90;;;;;;5033050;28;20203;-63
2024/01/24 07:33:53;;;;;;;0.05;0.00;;;12.30;99.90;;;;;;5033342;28;20265;-62
2024/01/24 07:36:21;;;;;;;0.75;0.10;;;12.30;99.90;;;;;;5032639;28;20237;-59
2024/01/24 07:38:49;;;;;;;0.75;0.00;;;12.40;99.90;;;;;;5030224;28;20207;-59
2024/01/24 07:41:17;;;;;;;0.28;0.10;;;12.40;99.90;;;;;;5032572;28;20606;-60
2024/01/24 07:43:45;;;;;;;0.05;0.05;;;12.40;99.90;;;;;;5033187;28;20321;-58
2024/01/24 07:46:13;;;;;;;0.10;0.10;;;12.40;99.90;;;;;;5032713;28;20305;-60
2024/01/24 07:48:42;;;;;;;0.00;0.00;;;12.30;99.90;;;;;;5033045;28;20226;-60
2024/01/24 07:51:12;;;;;;;0.10;0.10;;;12.30;99.90;;;;;;5032645;28;20211;-60
2024/01/24 07:53:42;;;;;;;0.80;0.13;;;12.20;99.90;;;;;;5032835;28;20774;-59
2024/01/24 07:56:10;;;;;;;1.92;0.15;;;12.20;99.90;;;;;;5032629;28;20292;-59
2024/01/24 07:58:52;;;;;;;3.45;0.10;;;12.10;99.90;;;;;;5032735;28;20213;-59
2024/01/24 08:01:20;;;;;;;1.65;0.10;;;12.20;99.90;;;;;;5031993;28;20580;-56
2024/01/24 08:03:50;;;;;;;0.20;0.10;;;12.20;99.90;;;;;;5032095;28;20227;-59
2024/01/24 08:06:21;;;;;;;0.00;0.00;;;12.20;99.90;;;;;;5032164;28;20233;-60
2024/01/24 08:08:50;;;;;;;0.20;0.20;;;12.20;99.90;;;;;;5032395;28;20245;-61
2024/01/24 08:11:21;;;;;;;0.20;0.20;;;12.30;99.90;;;;;;5029988;28;20205;-66
2024/01/24 08:13:49;;;;;;;0.00;0.00;;;12.30;99.90;;;;;;5005503;28;20253;-63
2024/01/24 08:16:18;;;;;;;1.13;0.20;;;12.30;99.90;;;;;;5011797;28;20224;-62
2024/01/24 08:18:47;;;;;;;0.47;0.20;;;12.30;99.90;;;;;;5012680;28;20204;-58
2024/01/24 08:21:17;;;;;;;0.13;0.13;;;12.30;99.90;;;;;;5011859;28;20676;-58
2024/01/24 08:23:47;;;;;;;0.20;0.17;;;12.30;99.90;;;;;;5012616;28;20203;-61
2024/01/24 08:26:18;;;;;;;0.17;0.17;;;12.40;99.90;;;;;;5012240;28;20266;-59
2024/01/24 08:28:47;;;;;;;1.17;0.10;;;12.40;99.90;;;;;;5008954;28;20693;-62
2024/01/24 08:31:15;;;;;;;0.20;0.20;;;12.40;99.90;;;;;;5006465;28;20207;-64
2024/01/24 08:33:43;;;;;;;0.10;0.10;;;12.40;99.90;;;;;;4990611;28;20212;-59
2024/01/24 08:36:15;;;;;;;0.30;0.30;;;12.40;99.90;;;;;;5003640;28;20647;-62
2024/01/24 08:38:43;;;;;;;0.10;0.10;;;12.50;99.90;;;;;;5006190;28;20206;-59
2024/01/24 08:41:13;;;;;;;0.10;0.10;;;12.50;99.90;;;;;;5004250;28;20235;-59
2024/01/24 08:43:41;;;;;;;0.17;0.17;;;12.50;99.90;;;;;;4999634;28;20207;-59
2024/01/24 08:46:08;;;;;;;0.30;0.15;;;12.60;99.90;;;;;;4992439;28;20717;-59
2024/01/24 08:48:37;;;;;;;0.47;0.13;;;12.80;99.90;;;;;;4989798;28;20263;-60
2024/01/24 08:51:05;;;;;;;2.50;0.30;;;12.90;99.90;;;;;;4991431;28;20207;-59
2024/01/24 08:53:34;;;;;;;4.20;0.40;;;13.10;99.90;;;;;;5007337;28;20200;-60
2024/01/24 08:56:02;;;;;;;2.00;0.52;;;13.30;99.90;;;;;;5001310;28;20310;-58
2024/01/24 08:58:31;;;;;;;0.93;0.40;;;13.40;99.90;;;;;;4992292;28;20204;-60
2024/01/24 09:00:59;;;;;;;2.40;0.40;;;13.40;99.90;;;;;;5007829;28;20265;-59
2024/01/24 09:03:27;;;;;;;0.40;0.30;;;13.40;99.90;;;;;;5005976;28;20203;-60
2024/01/24 09:05:55;;;;;;;1.00;0.30;;;13.50;99.90;;;;;;4993917;28;20751;-58
2024/01/24 09:08:25;;;;;;;1.17;0.38;;;13.40;99.90;;;;;;4990963;28;20351;-60
2024/01/24 09:10:53;;;;;;;1.20;0.60;;;13.40;99.90;;;;;;5010583;28;20562;-59
2024/01/24 09:13:22;;;;;;;3.65;0.82;;;13.40;99.90;;;;;;5007172;28;20192;-60
2024/01/24 09:15:52;;;;;;;3.05;0.60;;;13.40;99.90;;;;;;5008894;28;20314;-60
2024/01/24 09:18:20;;;;;;;4.40;0.73;;;13.40;99.90;;;;;;5007350;28;20200;-63
2024/01/24 09:20:49;;;;;;;2.20;0.52;;;13.40;99.90;;;;;;5008831;28;20203;-61
2024/01/24 09:23:17;;;;;;;3.30;0.65;;;13.40;99.90;;;;;;5003968;28;20213;-62
2024/01/24 09:25:44;;;;;;;5.72;1.05;;;13.50;99.90;;;;;;5015248;28;20223;-64
2024/01/24 09:28:12;;;;;;;2.45;0.68;;;13.50;99.90;;;;;;5004332;28;20224;-64
2024/01/24 09:30:40;;;;;;;2.65;0.68;;;13.60;99.90;;;;;;5002591;28;20283;-62
2024/01/24 09:33:10;;;;;;;6.25;0.95;;;13.60;99.90;;;;;;5015444;28;20199;-64
2024/01/24 09:35:38;;;;;;;7.60;1.60;;;13.70;99.90;;;;;;5008623;28;20251;-60
2024/01/24 09:38:06;;;;;;;5.22;1.00;;;13.70;99.90;;;;;;5001345;28;20246;-59
2024/01/24 09:40:34;;;;;;;1.55;0.80;;;13.70;99.90;;;;;;5012486;28;20642;-59
2024/01/24 09:43:02;;;;;;;3.80;0.90;;;13.70;99.90;;;;;;4995540;28;20215;-59
2024/01/24 09:45:30;;;;;;;8.18;1.55;;;13.80;99.90;;;;;;5008862;28;20723;-59
2024/01/24 09:47:58;;;;;;;5.97;1.27;;;13.80;99.90;;;;;;5013040;28;20220;-60
2024/01/24 09:50:27;;;;;;;8.20;1.40;;;13.80;99.90;;;;;;5000821;28;20212;-66
2024/01/24 09:52:55;;;;;;;10.52;1.38;;;13.90;99.90;;;;;;5011717;28;20211;-63
2024/01/24 09:55:23;;;;;;;5.05;1.02;;;13.80;99.90;;;;;;5011387;28;20223;-63
2024/01/24 09:57:51;;;;;;;5.35;1.02;;;13.90;99.90;;;;;;5013815;28;20623;-63
2024/01/24 10:00:20;;;;;;;7.05;1.42;;;13.90;99.90;;;;;;5007195;28;20204;-60
2024/01/24 10:02:48;;;;;;;6.70;1.45;;;13.90;99.90;;;;;;4997620;28;20307;-61
2024/01/24 10:05:17;;;;;;;9.43;1.55;;;14.00;99.90;;;;;;5010361;28;20235;-60
2024/01/24 10:07:46;;;;;;;12.57;1.80;;;14.10;99.90;;;;;;5014890;28;20207;-57
2024/01/24 10:10:15;;;;;;;9.45;1.75;;;14.30;99.90;;;;;;5013803;28;20234;-58
2024/01/24 10:12:43;;;;;;;13.98;1.90;;;14.40;99.90;;;;;;5010532;28;20227;-58
2024/01/24 10:15:11;;;;;;;7.95;1.70;;;14.60;99.90;;;;;;5003058;28;20785;-57
2024/01/24 10:17:40;;;;;;;11.18;2.72;;;14.70;99.90;;;;;;4994348;28;20204;-60
2024/01/24 10:20:11;;;;;;;10.55;2.50;;;14.70;99.90;;;;;;4994553;28;20584;-69
2024/01/24 10:22:39;;;;;;;11.98;2.58;;;14.60;99.90;;;;;;5003148;28;20207;-57
2024/01/24 10:25:10;;;;;;;15.70;3.17;;;14.50;99.90;;;;;;4993899;28;20258;-61
2024/01/24 10:27:39;;;;;;;14.88;2.85;;;14.50;99.90;;;;;;5007909;28;20281;-58
2024/01/24 10:30:10;;;;;;;16.45;2.75;;;14.50;99.90;;;;;;5003019;28;20259;-57
2024/01/24 10:32:38;;;;;;;10.45;2.90;;;14.50;99.90;;;;;;4996048;28;20665;-57
2024/01/24 10:35:06;;;;;;;15.38;3.42;;;14.40;99.90;;;;;;5002914;28;20235;-56
2024/01/24 10:37:33;;;;;;;16.92;3.22;;;14.30;99.90;;;;;;4994266;28;20235;-63
2024/01/24 10:40:06;;;;;;;17.35;3.25;;;14.30;99.90;;;;;;4994782;28;20211;-57
2024/01/24 10:42:36;;;;;;;12.57;2.97;;;14.30;99.90;;;;;;4994615;28;20211;-57
2024/01/24 10:45:05;;;;;;;15.40;3.20;;;14.30;99.90;;;;;;5002121;28;20269;-60
2024/01/24 10:47:34;;;;;;;17.20;3.40;;;14.30;99.90;;;;;;5000542;28;20287;-58
2024/01/24 10:50:03;;;;;;;18.33;3.47;;;14.30;99.90;;;;;;4996751;28;20223;-57
2024/01/24 10:52:32;;;;;;;18.48;2.67;;;14.40;99.90;;;;;;4997371;28;20286;-59
2024/01/24 10:55:03;;;;;;;13.82;3.08;;;14.40;99.90;;;;;;4994195;28;20229;-58
2024/01/24 10:57:32;;;;;;;19.27;3.75;;;14.40;99.90;;;;;;4994363;28;20606;-57
2024/01/24 11:00:04;;;;;;;13.25;3.25;;;14.40;99.90;;;;;;5002686;28;20697;-57
2024/01/24 11:02:33;;;;;;;16.05;3.13;;;14.50;99.90;;;;;;4993817;28;20212;-57
2024/01/24 11:05:03;;;;;;;18.85;3.25;;;14.50;99.90;;;;;;5011269;28;20231;-57
2024/01/24 11:07:33;;;;;;;14.77;3.15;;;14.60;99.90;;;;;;5013429;28;20264;-60
2024/01/24 11:10:08;;;;;;;18.98;3.25;;;14.80;99.90;;;;;;5012671;28;20853;-57
2024/01/24 11:12:37;;;;;;;18.70;3.20;;;14.80;99.90;;;;;;5013252;28;20203;-62
2024/01/24 11:15:08;;;;;;;19.75;3.90;;;14.70;99.90;;;;;;5010325;28;20323;-62
2024/01/24 11:17:36;;;;;;;15.93;3.13;;;14.60;99.90;;;;;;5012672;28;20200;-58
2024/01/24 11:20:06;;;;;;;14.55;3.10;;;14.60;99.90;;;;;;5009325;28;20621;-59
2024/01/24 11:22:35;;;;;;;17.85;3.30;;;14.60;99.90;;;;;;5012709;28;20211;-57
2024/01/24 11:25:04;;;;;;;18.45;3.30;;;14.60;99.90;;;;;;5013053;28;20590;-58
2024/01/24 11:27:33;;;;;;;11.98;2.47;;;14.60;99.90;;;;;;5008363;28;20653;-63
2024/01/24 11:30:17;;;;;;;12.15;2.65;;;14.50;99.90;;;;;;4993729;28;20234;-57
2024/01/24 11:33:00;;;;;;;16.25;3.83;;;14.40;99.90;;;;;;4994040;28;20204;-57
2024/01/24 11:35:32;;;;;;;15.50;2.58;;;14.40;99.90;;;;;;5008421;28;20285;-58
2024/01/24 11:38:00;;;;;;;14.82;3.20;;;14.40;99.90;;;;;;5012079;28;20692;-60
2024/01/24 11:40:34;;;;;;;16.58;2.90;;;14.40;99.90;;;;;;5013206;28;20290;-62
2024/01/24 11:43:03;;;;;;;12.60;3.00;;;14.40;99.90;;;;;;4995401;28;20277;-62
2024/01/24 11:45:33;;;;;;;16.98;2.92;;;14.30;99.90;;;;;;4992372;28;20315;-62
2024/01/24 11:48:01;;;;;;;16.83;3.80;;;14.30;99.90;;;;;;4993294;28;20212;-62
2024/01/24 11:50:29;;;;;;;15.00;3.53;;;14.40;99.90;;;;;;4993352;28;20689;-62
2024/01/24 11:53:00;;;;;;;15.38;3.33;;;14.40;99.90;;;;;;4993400;28;20208;-62
2024/01/24 11:55:29;;;;;;;12.63;3.30;;;14.50;99.90;;;;;;4992762;28;20291;-62
2024/01/24 11:57:57;;;;;;;20.15;2.75;;;14.40;99.90;;;;;;4993317;28;20268;-61
2024/01/24 12:00:26;;;;;;;18.73;3.42;;;14.40;99.90;;;;;;4993155;28;20282;-62
2024/01/24 12:02:55;;;;;;;14.10;2.65;;;14.30;99.90;;;;;;4993017;28;20204;-62
2024/01/24 12:05:23;;;;;;;17.40;2.97;;;14.30;99.90;;;;;;5004507;28;20227;-62
2024/01/24 12:07:51;;;;;;;14.77;2.90;;;14.20;99.90;;;;;;5012799;28;20744;-61
2024/01/24 12:10:19;;;;;;;15.50;2.97;;;14.10;99.90;;;;;;5012542;28;20219;-62
2024/01/24 12:12:47;;;;;;;14.27;3.50;;;14.10;99.90;;;;;;5012355;28;20203;-62
2024/01/24 12:15:15;;;;;;;19.02;3.63;;;14.10;99.90;;;;;;5012487;28;20318;-61
2024/01/24 12:17:43;;;;;;;15.50;3.05;;;14.00;99.90;;;;;;5012395;28;20203;-61
2024/01/24 12:20:16;;;;;;;19.83;3.50;;;14.10;99.90;;;;;;5012304;28;20204;-61
2024/01/24 12:22:44;;;;;;;17.75;3.53;;;14.10;99.90;;;;;;5012278;28;20238;-60
2024/01/24 12:25:12;;;;;;;17.83;3.00;;;14.10;99.90;;;;;;5012938;28;20289;-61
2024/01/24 12:27:40;;;;;;;15.40;3.25;;;14.10;99.90;;;;;;5015912;28;20199;-61
2024/01/24 12:30:10;;;;;;;14.65;2.97;;;14.10;99.90;;;;;;5010743;28;20315;-61
2024/01/24 12:32:41;;;;;;;13.88;2.97;;;14.20;99.90;;;;;;4991977;28;20210;-63
2024/01/24 12:35:11;;;;;;;16.15;3.95;;;14.20;99.90;;;;;;4992773;28;20247;-62
2024/01/24 12:37:41;;;;;;;15.13;3.35;;;14.20;99.90;;;;;;4992478;28;20222;-63
2024/01/24 12:40:11;;;;;;;15.20;3.25;;;14.10;99.90;;;;;;4994378;28;20220;-58
2024/01/24 12:42:40;;;;;;;17.92;3.78;;;14.00;99.90;;;;;;4996889;28;20290;-59
2024/01/24 12:45:10;;;;;;;15.90;3.47;;;13.90;99.90;;;;;;4995186;28;20283;-59
2024/01/24 12:47:39;;;;;;;20.40;4.07;;;13.80;99.90;;;;;;4994873;28;20745;-59
2024/01/24 12:50:10;;;;;;;18.17;3.65;;;13.80;99.90;;;;;;4994925;28;20224;-59
2024/01/24 12:52:39;;;;;;;27.00;5.00;;;13.80;99.90;;;;;;4994102;28;20211;-59